createdAt,value
2024-05-09T00:00:40.424Z,12.21
2024-05-09T00:03:09.816Z,12.18
2024-05-09T00:05:38.326Z,12.16
2024-05-09T00:08:06.843Z,12.13
2024-05-09T00:10:37.396Z,12.09
2024-05-09T00:13:06.952Z,12.06
2024-05-09T00:15:34.929Z,12.03
2024-05-09T00:18:03.250Z,12.00
2024-05-09T00:20:37.637Z,11.98
2024-05-09T00:23:08.838Z,11.95
2024-05-09T00:25:36.769Z,11.93
2024-05-09T00:28:03.878Z,11.91
2024-05-09T00:30:35.263Z,11.88
2024-05-09T00:33:08.722Z,11.86
2024-05-09T00:35:37.079Z,11.81
2024-05-09T00:38:04.509Z,11.79
2024-05-09T00:40:41.847Z,11.76
2024-05-09T00:43:14.517Z,11.71
2024-05-09T00:45:46.000Z,11.70
2024-05-09T00:48:17.567Z,11.70
2024-05-09T00:50:47.319Z,11.69
2024-05-09T00:53:15.827Z,11.66
2024-05-09T00:55:45.107Z,11.64
2024-05-09T00:58:12.650Z,11.60
2024-05-09T01:00:41.273Z,11.57
2024-05-09T01:03:11.513Z,11.52
2024-05-09T01:05:40.529Z,11.50
2024-05-09T01:08:09.550Z,11.48
2024-05-09T01:10:42.807Z,11.48
2024-05-09T01:13:13.073Z,11.45
2024-05-09T01:15:40.020Z,11.44
2024-05-09T01:18:10.462Z,11.42
2024-05-09T01:20:42.298Z,11.41
2024-05-09T01:23:12.042Z,11.41
2024-05-09T01:25:39.693Z,11.39
2024-05-09T01:28:07.826Z,11.39
2024-05-09T01:30:37.014Z,11.38
2024-05-09T01:33:07.253Z,11.36
2024-05-09T01:35:36.266Z,11.36
2024-05-09T01:38:04.634Z,11.33
2024-05-09T01:40:37.495Z,11.30
2024-05-09T01:43:09.390Z,11.25
2024-05-09T01:45:37.318Z,11.21
2024-05-09T01:48:04.839Z,11.19
2024-05-09T01:53:01.685Z,11.17
2024-05-09T01:55:28.512Z,11.15
2024-05-09T01:57:55.252Z,11.13
2024-05-09T02:00:33.807Z,11.11
2024-05-09T02:03:09.063Z,11.11
2024-05-09T02:05:37.414Z,11.11
2024-05-09T02:08:05.311Z,11.08
2024-05-09T02:10:33.291Z,11.05
2024-05-09T02:13:00.796Z,11.05
2024-05-09T02:15:28.702Z,11.03
2024-05-09T02:17:55.678Z,11.00
2024-05-09T02:20:32.923Z,10.97
2024-05-09T02:23:04.427Z,10.94
2024-05-09T02:25:31.941Z,10.93
2024-05-09T02:27:59.073Z,10.90
2024-05-09T02:30:35.830Z,10.88
2024-05-09T02:33:07.678Z,10.88
2024-05-09T02:35:34.975Z,10.87
2024-05-09T02:38:01.961Z,10.84
2024-05-09T02:40:36.623Z,10.81
2024-05-09T02:43:06.303Z,10.79
2024-05-09T02:45:33.312Z,10.77
2024-05-09T02:48:01.387Z,10.75
2024-05-09T02:50:36.998Z,10.72
2024-05-09T02:53:07.163Z,10.69
2024-05-09T02:55:34.290Z,10.67
2024-05-09T02:58:01.156Z,10.65
2024-05-09T03:00:37.669Z,10.64
2024-05-09T03:03:08.744Z,10.63
2024-05-09T03:05:37.383Z,10.63
2024-05-09T03:08:04.964Z,10.61
2024-05-09T03:10:36.200Z,10.60
2024-05-09T03:13:13.165Z,10.59
2024-05-09T03:15:41.637Z,10.57
2024-05-09T03:18:09.061Z,10.56
2024-05-09T03:20:37.070Z,10.55
2024-05-09T03:23:06.832Z,10.54
2024-05-09T03:25:33.936Z,10.51
2024-05-09T03:28:00.952Z,10.48
2024-05-09T03:30:39.854Z,10.46
2024-05-09T03:33:22.744Z,10.44
2024-05-09T03:35:49.889Z,10.41
2024-05-09T03:38:16.937Z,10.41
2024-05-09T03:40:48.767Z,10.40
2024-05-09T03:43:16.590Z,10.40
2024-05-09T03:45:43.787Z,10.40
2024-05-09T03:48:10.910Z,10.39
2024-05-09T03:50:38.305Z,10.39
2024-05-09T03:53:05.534Z,10.38
2024-05-09T03:55:32.494Z,10.39
2024-05-09T03:57:59.566Z,10.40
2024-05-09T04:00:35.349Z,10.41
2024-05-09T04:03:08.563Z,10.40
2024-05-09T04:05:39.799Z,10.41
2024-05-09T04:08:07.490Z,10.41
2024-05-09T04:10:35.297Z,10.41
2024-05-09T04:13:03.312Z,10.42
2024-05-09T04:15:30.630Z,10.42
2024-05-09T04:17:57.796Z,10.42
2024-05-09T04:20:34.343Z,10.44
2024-05-09T04:23:06.234Z,10.47
2024-05-09T04:25:33.455Z,10.48
2024-05-09T04:28:00.324Z,10.48
2024-05-09T04:30:36.348Z,10.50
2024-05-09T04:33:08.126Z,10.51
2024-05-09T04:35:37.983Z,10.52
2024-05-09T04:38:05.450Z,10.53
2024-05-09T04:40:35.595Z,10.55
2024-05-09T04:43:07.556Z,10.57
2024-05-09T04:45:35.141Z,10.59
2024-05-09T04:48:02.692Z,10.61
2024-05-09T04:50:36.769Z,10.63
2024-05-09T04:53:10.571Z,10.64
2024-05-09T04:55:39.142Z,10.66
2024-05-09T04:58:09.757Z,10.68
2024-05-09T05:00:39.009Z,10.68
2024-05-09T05:03:10.374Z,10.71
2024-05-09T05:05:42.790Z,10.71
2024-05-09T05:08:14.338Z,10.74
2024-05-09T05:10:41.990Z,10.78
2024-05-09T05:13:24.995Z,10.81
2024-05-09T05:15:56.421Z,10.83
2024-05-09T05:18:25.048Z,10.86
2024-05-09T05:20:52.342Z,10.90
2024-05-09T05:23:20.579Z,10.93
2024-05-09T05:25:48.927Z,10.97
2024-05-09T05:28:16.786Z,11.01
2024-05-09T05:30:43.800Z,11.04
2024-05-09T05:33:12.266Z,11.07
2024-05-09T05:35:40.023Z,11.08
2024-05-09T05:38:08.909Z,11.08
2024-05-09T05:40:45.020Z,11.09
2024-05-09T05:43:18.551Z,11.09
2024-05-09T05:45:46.086Z,11.11
2024-05-09T05:48:16.879Z,11.16
2024-05-09T05:50:44.751Z,11.18
2024-05-09T05:53:11.683Z,11.21
2024-05-09T05:55:39.951Z,11.25
2024-05-09T05:58:12.047Z,11.28
2024-05-09T06:00:42.223Z,11.33
2024-05-09T06:03:10.471Z,11.38
2024-05-09T06:05:40.356Z,11.41
2024-05-09T06:08:08.087Z,11.46
2024-05-09T06:10:39.101Z,11.51
2024-05-09T06:13:10.492Z,11.55
2024-05-09T06:15:37.534Z,11.59
2024-05-09T06:18:08.485Z,11.63
2024-05-09T06:20:37.910Z,11.67
2024-05-09T06:23:07.061Z,11.72
2024-05-09T06:25:35.147Z,11.75
2024-05-09T06:28:02.635Z,11.79
2024-05-09T06:30:37.975Z,11.85
2024-05-09T06:33:08.843Z,11.87
2024-05-09T06:35:36.640Z,11.90
2024-05-09T06:38:03.695Z,11.94
2024-05-09T06:40:37.776Z,11.98
2024-05-09T06:43:17.898Z,12.04
2024-05-09T06:45:48.903Z,12.07
2024-05-09T06:48:21.267Z,12.12
2024-05-09T06:50:49.088Z,12.16
2024-05-09T06:53:17.587Z,12.23
2024-05-09T06:55:44.668Z,12.29
2024-05-09T06:58:11.601Z,12.35
2024-05-09T07:00:42.087Z,12.40
2024-05-09T07:03:16.471Z,12.47
2024-05-09T07:05:46.250Z,12.54
2024-05-09T07:08:14.930Z,12.61
2024-05-09T07:10:42.076Z,12.66
2024-05-09T07:13:10.277Z,12.73
2024-05-09T07:15:37.308Z,12.78
2024-05-09T07:18:20.029Z,12.84
2024-05-09T07:20:49.195Z,12.90
2024-05-09T07:23:17.206Z,12.97
2024-05-09T07:25:44.397Z,13.08
2024-05-09T07:28:16.198Z,13.18
2024-05-09T07:30:43.577Z,13.26
2024-05-09T07:33:16.231Z,13.35
2024-05-09T07:35:43.238Z,13.47
2024-05-09T07:38:10.181Z,13.65
2024-05-09T07:40:38.648Z,13.77
2024-05-09T07:43:07.089Z,13.88
2024-05-09T07:52:23.901Z,14.32
2024-05-09T07:53:39.026Z,14.42
2024-05-09T07:56:09.934Z,14.44
2024-05-09T07:58:37.471Z,14.56
2024-05-09T08:01:05.123Z,14.64
2024-05-09T08:03:32.249Z,14.67
2024-05-09T08:05:59.102Z,14.87
2024-05-09T08:08:26.517Z,15.02
2024-05-09T08:10:53.464Z,15.15
2024-05-09T08:13:20.488Z,15.24
2024-05-09T08:15:47.455Z,15.25
2024-05-09T08:18:14.467Z,15.27
2024-05-09T08:20:42.259Z,15.33
2024-05-09T08:23:09.172Z,15.43
2024-05-09T08:25:35.985Z,15.55
2024-05-09T08:28:04.769Z,15.63
2024-05-09T08:30:36.807Z,15.73
2024-05-09T08:33:06.537Z,15.82
2024-05-09T08:35:34.311Z,15.90
2024-05-09T08:38:02.982Z,15.94
2024-05-09T08:40:35.679Z,16.01
2024-05-09T08:43:09.306Z,16.27
2024-05-09T08:45:39.042Z,16.38
2024-05-09T08:48:08.855Z,16.52
2024-05-09T08:50:39.471Z,16.60
2024-05-09T08:53:08.472Z,16.66
2024-05-09T08:55:42.031Z,16.77
2024-05-09T08:58:21.959Z,16.72
2024-05-09T09:00:49.538Z,16.74
2024-05-09T09:03:22.884Z,16.83
2024-05-09T09:06:01.298Z,16.86
2024-05-09T09:08:28.402Z,16.93
2024-05-09T09:10:58.206Z,17.15
2024-05-09T09:13:25.971Z,17.23
2024-05-09T09:15:57.551Z,17.30
2024-05-09T09:18:26.642Z,17.31
2024-05-09T09:20:53.714Z,17.36
2024-05-09T09:23:20.553Z,17.41
2024-05-09T09:25:47.613Z,17.50
2024-05-09T09:28:14.656Z,17.51
2024-05-09T09:30:42.750Z,17.46
2024-05-09T09:33:10.571Z,17.36
2024-05-09T09:35:40.179Z,17.23
2024-05-09T09:38:07.959Z,17.14
2024-05-09T09:40:40.390Z,17.08
2024-05-09T09:43:14.970Z,17.02
2024-05-09T09:45:43.743Z,16.99
2024-05-09T09:48:12.224Z,16.95
2024-05-09T09:50:40.340Z,16.95
2024-05-09T09:53:07.713Z,16.95
2024-05-09T09:55:35.054Z,16.96
2024-05-09T09:58:04.602Z,16.95
2024-05-09T10:00:33.726Z,16.99
2024-05-09T10:03:01.882Z,17.06
2024-05-09T10:05:29.459Z,17.12
2024-05-09T10:07:56.961Z,17.13
2024-05-09T10:10:31.405Z,17.17
2024-05-09T10:13:05.785Z,17.22
2024-05-09T10:15:53.851Z,17.28
2024-05-09T10:18:30.215Z,17.32
2024-05-09T10:20:59.657Z,17.40
2024-05-09T10:23:27.947Z,17.53
2024-05-09T10:25:59.613Z,17.75
2024-05-09T10:28:30.369Z,18.00
2024-05-09T10:31:24.263Z,18.18
2024-05-09T10:33:52.876Z,18.40
2024-05-09T10:36:25.002Z,18.69
2024-05-09T10:38:53.644Z,18.99
2024-05-09T10:41:21.518Z,19.29
2024-05-09T10:43:48.959Z,19.49
2024-05-09T10:46:16.495Z,19.73
2024-05-09T10:48:44.321Z,19.97
2024-05-09T10:51:11.949Z,20.14
2024-05-09T10:53:46.005Z,20.29
2024-05-09T10:56:16.129Z,20.25
2024-05-09T10:58:43.162Z,20.23
2024-05-09T11:01:10.495Z,20.23
2024-05-09T11:03:38.842Z,20.32
2024-05-09T11:06:06.654Z,20.46
2024-05-09T11:08:34.326Z,20.64
2024-05-09T11:11:03.009Z,20.71
2024-05-09T11:13:30.940Z,20.99
2024-05-09T11:16:01.630Z,21.15
2024-05-09T11:18:31.932Z,21.13
2024-05-09T11:21:02.049Z,20.98
2024-05-09T11:23:32.472Z,20.87
2024-05-09T11:25:59.430Z,20.66
2024-05-09T11:28:28.411Z,20.66
2024-05-09T11:31:06.452Z,20.90
2024-05-09T11:33:37.063Z,21.02
2024-05-09T11:36:03.915Z,21.07
2024-05-09T11:38:30.999Z,21.29
2024-05-09T11:40:57.711Z,21.46
2024-05-09T11:43:24.535Z,21.38
2024-05-09T11:45:51.603Z,21.16
2024-05-09T11:48:19.839Z,21.04
2024-05-09T11:50:47.749Z,20.87
2024-05-09T11:53:14.550Z,21.27
2024-05-09T11:55:41.493Z,21.59
2024-05-09T11:58:08.536Z,21.78
2024-05-09T12:00:37.562Z,22.04
2024-05-09T12:03:05.826Z,21.76
2024-05-09T12:05:33.971Z,21.72
2024-05-09T12:08:01.336Z,21.94
2024-05-09T12:10:33.337Z,21.88
2024-05-09T12:13:04.229Z,21.70
2024-05-09T12:15:32.638Z,21.08
2024-05-09T12:18:02.770Z,21.02
2024-05-09T12:20:36.756Z,21.21
2024-05-09T12:23:06.364Z,21.21
2024-05-09T12:25:33.260Z,21.23
2024-05-09T12:28:00.633Z,21.23
2024-05-09T12:30:35.889Z,21.30
2024-05-09T12:33:07.600Z,21.34
2024-05-09T12:35:34.547Z,21.29
2024-05-09T12:38:01.294Z,21.36
2024-05-09T12:40:35.565Z,21.39
2024-05-09T12:43:06.758Z,21.68
2024-05-09T12:45:35.560Z,22.13
2024-05-09T12:48:02.569Z,22.60
2024-05-09T12:50:32.841Z,23.07
2024-05-09T12:53:02.072Z,23.44
2024-05-09T12:55:33.985Z,23.55
2024-05-09T12:58:07.774Z,23.67
2024-05-09T13:00:34.939Z,23.95
2024-05-09T13:03:02.015Z,23.87
2024-05-09T13:05:29.343Z,23.68
2024-05-09T13:07:57.026Z,23.46
2024-05-09T13:10:31.183Z,23.24
2024-05-09T13:13:00.569Z,23.01
2024-05-09T13:15:28.028Z,22.44
2024-05-09T13:17:57.910Z,22.41
2024-05-09T13:20:32.386Z,22.80
2024-05-09T13:23:02.346Z,22.77
2024-05-09T13:25:29.221Z,22.37
2024-05-09T13:27:56.891Z,22.40
2024-05-09T13:30:29.885Z,22.50
2024-05-09T13:33:06.330Z,22.39
2024-05-09T13:35:35.417Z,22.23
2024-05-09T13:38:03.454Z,21.97
2024-05-09T13:40:34.389Z,21.77
2024-05-09T13:43:04.530Z,21.72
2024-05-09T13:45:31.891Z,21.53
2024-05-09T13:47:58.979Z,21.49
2024-05-09T13:50:33.771Z,21.43
2024-05-09T13:53:05.408Z,21.43
2024-05-09T13:55:33.243Z,21.52
2024-05-09T13:58:00.392Z,21.59
2024-05-09T14:00:38.332Z,21.95
2024-05-09T14:03:11.801Z,22.62
2024-05-09T14:05:38.870Z,23.21
2024-05-09T14:08:06.098Z,23.65
2024-05-09T14:10:33.100Z,24.10
2024-05-09T14:13:01.160Z,24.47
2024-05-09T14:15:28.250Z,24.46
2024-05-09T14:17:55.634Z,24.41
2024-05-09T14:20:30.286Z,24.28
2024-05-09T14:22:59.448Z,24.12
2024-05-09T14:25:28.573Z,23.48
2024-05-09T14:27:57.463Z,23.40
2024-05-09T14:30:31.032Z,23.29
2024-05-09T14:33:03.852Z,23.29
2024-05-09T14:35:30.845Z,23.19
2024-05-09T14:37:57.672Z,22.97
2024-05-09T14:40:36.203Z,22.74
2024-05-09T14:43:08.167Z,22.76
2024-05-09T14:45:35.186Z,22.77
2024-05-09T14:48:03.146Z,22.83
2024-05-09T14:50:36.041Z,22.48
2024-05-09T14:53:10.076Z,22.48
2024-05-09T14:55:39.280Z,22.66
2024-05-09T14:58:07.648Z,22.66
2024-05-09T15:00:41.702Z,22.87
2024-05-09T15:03:11.884Z,22.99
2024-05-09T15:05:38.923Z,23.15
2024-05-09T15:08:07.071Z,23.50
2024-05-09T15:10:36.242Z,23.95
2024-05-09T15:13:04.585Z,24.28
2024-05-09T15:15:31.624Z,24.51
2024-05-09T15:17:59.291Z,24.58
2024-05-09T15:20:33.254Z,24.89
2024-05-09T15:23:03.140Z,25.36
2024-05-09T15:25:30.302Z,25.52
2024-05-09T15:27:57.447Z,25.53
2024-05-09T15:30:30.566Z,25.79
2024-05-09T15:33:00.741Z,26.14
2024-05-09T15:35:27.852Z,26.36
2024-05-09T15:37:54.765Z,26.42
2024-05-09T15:40:30.905Z,26.18
2024-05-09T15:43:05.346Z,25.96
2024-05-09T15:45:32.658Z,25.67
2024-05-09T15:47:59.790Z,25.40
2024-05-09T15:50:36.280Z,25.11
2024-05-09T15:53:07.582Z,24.72
2024-05-09T15:55:35.227Z,24.68
2024-05-09T15:58:03.371Z,24.72
2024-05-09T16:00:37.858Z,24.63
2024-05-09T16:03:09.296Z,24.30
2024-05-09T16:05:36.774Z,24.16
2024-05-09T16:08:04.482Z,24.08
2024-05-09T16:10:33.290Z,24.01
2024-05-09T16:13:02.377Z,23.73
2024-05-09T16:15:30.228Z,23.73
2024-05-09T16:17:57.386Z,23.62
2024-05-09T16:20:34.403Z,23.48
2024-05-09T16:23:06.708Z,23.20
2024-05-09T16:25:33.791Z,22.98
2024-05-09T16:28:00.906Z,22.68
2024-05-09T16:30:34.114Z,22.45
2024-05-09T16:33:04.438Z,22.24
2024-05-09T16:35:32.014Z,22.13
2024-05-09T16:38:02.236Z,22.02
2024-05-09T16:40:36.520Z,21.98
2024-05-09T16:43:07.172Z,21.94
2024-05-09T16:45:34.384Z,21.75
2024-05-09T16:48:01.618Z,21.71
2024-05-09T16:50:33.003Z,21.67
2024-05-09T16:53:02.288Z,21.58
2024-05-09T16:55:29.254Z,21.51
2024-05-09T16:57:57.159Z,21.48
2024-05-09T17:00:35.223Z,21.43
2024-05-09T17:03:08.600Z,21.45
2024-05-09T17:05:36.311Z,21.49
2024-05-09T17:08:03.735Z,21.48
2024-05-09T17:10:33.725Z,21.52
2024-05-09T17:13:07.344Z,21.45
2024-05-09T17:15:36.400Z,21.40
2024-05-09T17:18:04.558Z,21.40
2024-05-09T17:20:34.431Z,21.30
2024-05-09T17:23:04.852Z,21.28
2024-05-09T17:25:32.403Z,21.24
2024-05-09T17:28:07.565Z,21.17
2024-05-09T17:30:37.726Z,21.14
2024-05-09T17:33:07.766Z,21.09
2024-05-09T17:35:36.170Z,21.07
2024-05-09T17:38:03.201Z,20.95
2024-05-09T17:40:34.929Z,20.88
2024-05-09T17:43:05.006Z,20.88
2024-05-09T17:45:32.766Z,20.81
2024-05-09T17:48:00.114Z,20.56
2024-05-09T17:50:34.917Z,20.56
2024-05-09T17:53:04.273Z,20.58
2024-05-09T17:55:31.146Z,20.59
2024-05-09T17:57:58.226Z,20.55
2024-05-09T18:00:36.311Z,20.39
2024-05-09T18:03:07.020Z,20.36
2024-05-09T18:05:35.908Z,20.32
2024-05-09T18:08:03.718Z,20.30
2024-05-09T18:10:36.442Z,20.26
2024-05-09T18:13:07.003Z,20.19
2024-05-09T18:15:34.279Z,20.09
2024-05-09T18:18:02.299Z,20.04
2024-05-09T18:20:38.057Z,19.93
2024-05-09T18:23:10.181Z,19.83
2024-05-09T18:25:37.312Z,19.76
2024-05-09T18:28:04.754Z,19.65
2024-05-09T18:30:35.294Z,19.56
2024-05-09T18:33:05.369Z,19.48
2024-05-09T18:35:33.553Z,19.36
2024-05-09T18:38:00.555Z,19.33
2024-05-09T18:40:32.993Z,19.30
2024-05-09T18:43:03.738Z,19.21
2024-05-09T18:45:31.028Z,19.16
2024-05-09T18:47:58.255Z,19.10
2024-05-09T18:50:34.018Z,19.03
2024-05-09T18:53:07.853Z,18.91
2024-05-09T18:55:35.106Z,18.82
2024-05-09T18:58:02.554Z,18.73
2024-05-09T19:00:35.412Z,18.62
2024-05-09T19:03:09.637Z,18.51
2024-05-09T19:05:39.170Z,18.42
2024-05-09T19:08:07.545Z,18.34
2024-05-09T19:10:35.911Z,18.26
2024-05-09T19:13:08.186Z,18.18
2024-05-09T19:15:39.499Z,18.09
2024-05-09T19:18:07.560Z,18.04
2024-05-09T19:20:36.249Z,17.97
2024-05-09T19:23:04.571Z,17.92
2024-05-09T19:25:32.055Z,17.88
2024-05-09T19:27:59.350Z,17.81
2024-05-09T19:30:36.346Z,17.72
2024-05-09T19:33:07.610Z,17.65
2024-05-09T19:35:34.508Z,17.59
2024-05-09T19:38:01.448Z,17.51
2024-05-09T19:40:31.659Z,17.43
2024-05-09T19:43:01.757Z,17.36
2024-05-09T19:45:29.460Z,17.29
2024-05-09T19:47:56.394Z,17.24
2024-05-09T19:50:32.213Z,17.17
2024-05-09T19:53:06.868Z,17.08
2024-05-09T19:55:33.917Z,17.03
2024-05-09T19:58:04.893Z,16.94
2024-05-09T20:00:38.962Z,16.89
2024-05-09T20:03:08.363Z,16.79
2024-05-09T20:05:36.274Z,16.70
2024-05-09T20:08:03.645Z,16.62
2024-05-09T20:10:33.108Z,16.54
2024-05-09T20:13:02.476Z,16.46
2024-05-09T20:15:29.447Z,16.37
2024-05-09T20:17:56.461Z,16.33
2024-05-09T20:20:33.255Z,16.29
2024-05-09T20:23:06.123Z,16.28
2024-05-09T20:25:33.085Z,16.25
2024-05-09T20:28:00.032Z,16.23
2024-05-09T20:30:32.061Z,16.22
2024-05-09T20:33:02.826Z,16.20
2024-05-09T20:35:32.311Z,16.17
2024-05-09T20:38:01.006Z,16.14
2024-05-09T20:40:32.845Z,16.08
2024-05-09T20:43:03.405Z,16.03
2024-05-09T20:45:30.242Z,15.96
2024-05-09T20:47:57.642Z,15.89
2024-05-09T20:50:35.403Z,15.86
2024-05-09T20:53:11.100Z,15.83
2024-05-09T20:55:38.846Z,15.80
2024-05-09T20:58:05.770Z,15.73
2024-05-09T21:00:39.983Z,15.71
2024-05-09T21:03:10.618Z,15.66
2024-05-09T21:05:38.072Z,15.60
2024-05-09T21:08:05.315Z,15.56
2024-05-09T21:10:33.839Z,15.54
2024-05-09T21:13:02.780Z,15.48
2024-05-09T21:15:30.250Z,15.45
2024-05-09T21:17:57.087Z,15.43
2024-05-09T21:20:30.610Z,15.35
2024-05-09T21:22:59.120Z,15.28
2024-05-09T21:25:25.973Z,15.26
2024-05-09T21:27:52.963Z,15.24
2024-05-09T21:30:31.452Z,15.21
2024-05-09T21:33:08.257Z,15.18
2024-05-09T21:35:35.412Z,15.15
2024-05-09T21:38:02.212Z,15.11
2024-05-09T21:40:34.302Z,15.10
2024-05-09T21:43:03.488Z,15.05
2024-05-09T21:45:30.551Z,15.00
2024-05-09T21:47:57.500Z,14.95
2024-05-09T21:50:32.170Z,14.93
2024-05-09T21:53:05.831Z,14.91
2024-05-09T21:55:32.733Z,14.86
2024-05-09T21:57:59.499Z,14.84
2024-05-09T22:00:34.527Z,14.85
2024-05-09T22:03:05.356Z,14.81
2024-05-09T22:05:32.740Z,14.81
2024-05-09T22:07:59.666Z,14.77
2024-05-09T22:10:32.380Z,14.76
2024-05-09T22:13:01.840Z,14.74
2024-05-09T22:15:28.725Z,14.71
2024-05-09T22:17:56.949Z,14.68
2024-05-09T22:20:33.066Z,14.64
2024-05-09T22:23:04.436Z,14.63
2024-05-09T22:25:32.303Z,14.60
2024-05-09T22:28:00.672Z,14.59
2024-05-09T22:30:35.782Z,14.56
2024-05-09T22:33:07.078Z,14.54
2024-05-09T22:35:34.143Z,14.49
2024-05-09T22:38:02.480Z,14.47
2024-05-09T22:40:38.698Z,14.44
2024-05-09T22:43:13.768Z,14.38
2024-05-09T22:45:41.200Z,14.36
2024-05-09T22:48:08.871Z,14.37
2024-05-09T22:50:36.029Z,14.35
2024-05-09T22:53:02.806Z,14.34
2024-05-09T22:55:30.189Z,14.32
2024-05-09T22:57:57.211Z,14.30
2024-05-09T23:02:53.911Z,14.27
2024-05-09T23:05:20.928Z,14.26
2024-05-09T23:07:48.723Z,14.24
2024-05-09T23:10:21.375Z,14.23
2024-05-09T23:12:55.799Z,14.24
2024-05-09T23:15:22.626Z,14.22
2024-05-09T23:17:49.587Z,14.21
2024-05-09T23:20:22.103Z,14.19
2024-05-09T23:22:56.648Z,14.18
2024-05-09T23:25:23.526Z,14.17
2024-05-09T23:27:50.352Z,14.12
2024-05-09T23:30:28.422Z,14.09
2024-05-09T23:33:01.405Z,14.02
2024-05-09T23:35:28.424Z,13.97
2024-05-09T23:37:55.208Z,13.94
2024-05-09T23:40:23.493Z,13.92
2024-05-09T23:42:54.498Z,13.91
2024-05-09T23:45:21.432Z,13.88
2024-05-09T23:47:48.345Z,13.85
2024-05-09T23:50:20.535Z,13.82
2024-05-09T23:52:50.805Z,13.79
2024-05-09T23:55:17.852Z,13.78
2024-05-09T23:57:44.861Z,13.76
